Hlavní strana
METAR-TAF:

METAR-TAF

Letiště :

Treviso, Itálie

zeměpisná šířka: 45-39N, zeměpisná délka: 012-11E, výška: 18 m

Aktuální stav počasí

Zpráva byla vytvořena před 34 minutami, v 12:50 UTC
Jihojihozápadní vítr 4 kt, proměnlivý mezi jihovýchodním a západním
Teplota 28°C
Vlhkost vzduchu 45%
Tlak 1021 hPa
Viditelnost 10 km a více
Žádná oblačnost pod 1500 m, nevyskytují se cumulonimby.

METAR: LIPH 141250Z 21004KT 130V270 CAVOK 28/15 Q1021

Čas: 15:24 (13:24 UTC)

Předpověď počasí

Zpráva byla vytvořena před 2 hodinami a 24 minutami, v 11:00 UTC
Předpověď platná od 14 v 12 UTC do 15 v 12 UTC
vítr z různých směrů 5 kt
Viditelnost 10 km a více
Žádná oblačnost pod 1500 m, nevyskytují se cumulonimby.
Změna
od 14 v 15 UTC do 14 v 17 UTC
Jižní vítr 10 kt
Změna
od 14 v 18 UTC do 14 v 20 UTC
vítr z různých směrů 5 kt
Změna
od 15 v 10 UTC do 15 v 12 UTC
Západojihozápadní vítr 10 kt

TAF: LIPH 141100Z 1412/1512 VRB05KT CAVOK BECMG 1415/1417 17010KT BECMG 1418/1420 VRB05KT BECMG 1510/1512 25010KT

Stav a předpovědi počasí z více než 4 000 letišť (zprávy METAR a TAF).

Červené a žluté tečky na mapě představují dostupné meteorologické stanice.

Když kurzor umístíte na tečku, zobrazí se název stanice.

Pak kliknutím zobrazíte stav a předpověď počasí.

Chcete-li změnit mapu, kliknutím na zelené tlačítko se znaménkem +mapu přiblížíte, kliknutím na zelené tlačítko se znaménkem – mapu oddálíte a kliknutím na zelené šipky přejdete na sousední mapy.


METAR-TAF: